createdAt,value
2022-10-05T00:01:35.802Z,102317.41
2022-10-05T00:04:16.710Z,102313.38
2022-10-05T00:07:08.812Z,102317.13
2022-10-05T00:09:39.365Z,102319.91
2022-10-05T00:12:21.123Z,102319.25
2022-10-05T00:14:55.077Z,102315.97
2022-10-05T00:17:28.901Z,102307.50
2022-10-05T00:19:59.549Z,102314.84
2022-10-05T00:22:36.404Z,102311.56
2022-10-05T00:25:16.698Z,102302.16
2022-10-05T00:27:50.608Z,102292.91
2022-10-05T00:30:23.727Z,102295.91
2022-10-05T00:32:59.284Z,102289.41
2022-10-05T00:35:30.807Z,102295.88
2022-10-05T00:38:01.457Z,102297.22
2022-10-05T00:40:58.694Z,102302.50
2022-10-05T00:44:01.608Z,102314.16
2022-10-05T00:46:49.044Z,102315.13
2022-10-05T00:49:38.996Z,102320.66
2022-10-05T00:52:41.581Z,102312.13
2022-10-05T00:55:57.351Z,102311.50
2022-10-05T00:59:12.454Z,102320.50
2022-10-05T01:01:55.170Z,102324.19
2022-10-05T01:04:34.707Z,102330.56
2022-10-05T01:07:23.699Z,102337.94
2022-10-05T01:10:24.479Z,102337.63
2022-10-05T01:13:14.483Z,102346.91
2022-10-05T01:16:05.208Z,102351.88
2022-10-05T01:18:52.992Z,102341.53
2022-10-05T01:21:26.967Z,102339.09
2022-10-05T01:24:15.241Z,102343.63
2022-10-05T01:27:25.694Z,102334.13
2022-10-05T01:30:09.033Z,102319.97
2022-10-05T01:33:08.645Z,102314.66
2022-10-05T01:35:54.038Z,102326.34
2022-10-05T01:38:33.825Z,102328.44
2022-10-05T01:41:29.048Z,102320.59
2022-10-05T01:44:26.104Z,102309.44
2022-10-05T01:47:33.069Z,102308.28
2022-10-05T01:50:12.781Z,102308.91
2022-10-05T01:52:45.844Z,102302.53
2022-10-05T01:55:32.452Z,102297.72
2022-10-05T01:58:09.516Z,102281.41
2022-10-05T02:00:50.832Z,102281.19
2022-10-05T02:03:27.443Z,102287.94
2022-10-05T02:06:08.368Z,102284.81
2022-10-05T02:09:14.000Z,102282.56
2022-10-05T02:11:51.154Z,102271.63
2022-10-05T02:14:32.574Z,102262.13
2022-10-05T02:17:10.316Z,102264.19
2022-10-05T02:19:54.451Z,102257.38
2022-10-05T02:22:45.833Z,102263.63
2022-10-05T02:25:25.356Z,102249.66
2022-10-05T02:28:23.437Z,102241.13
2022-10-05T02:31:06.503Z,102238.75
2022-10-05T02:33:37.369Z,102234.63
2022-10-05T02:36:18.548Z,102222.72
2022-10-05T02:39:22.914Z,102222.00
2022-10-05T02:42:31.200Z,102216.78
2022-10-05T02:45:18.863Z,102213.13
2022-10-05T02:48:02.128Z,102206.81
2022-10-05T02:51:00.936Z,102198.84
2022-10-05T02:54:10.150Z,102192.91
2022-10-05T02:57:01.512Z,102183.34
2022-10-05T02:59:42.720Z,102192.59
2022-10-05T03:02:51.359Z,102171.94
2022-10-05T03:05:48.369Z,102164.44
2022-10-05T03:08:22.160Z,102147.59
2022-10-05T03:11:11.589Z,102152.47
2022-10-05T03:13:56.704Z,102140.78
2022-10-05T03:16:43.026Z,102138.00
2022-10-05T03:19:16.947Z,102141.06
2022-10-05T03:21:59.267Z,102133.72
2022-10-05T03:25:01.280Z,102129.81
2022-10-05T03:27:31.519Z,102123.13
2022-10-05T03:30:10.641Z,102132.38
2022-10-05T03:32:57.168Z,102118.63
2022-10-05T03:35:37.196Z,102125.19
2022-10-05T03:38:25.947Z,102116.72
2022-10-05T03:41:21.215Z,102102.31
2022-10-05T03:44:14.921Z,102086.97
2022-10-05T03:47:17.537Z,102078.47
2022-10-05T03:50:15.313Z,102070.91
2022-10-05T03:53:13.694Z,102066.03
2022-10-05T03:55:58.877Z,102055.97
2022-10-05T03:58:43.997Z,102057.41
2022-10-05T04:01:24.059Z,102047.22
2022-10-05T04:04:06.980Z,102036.16
2022-10-05T04:06:44.213Z,102032.13
2022-10-05T04:09:33.646Z,102030.84
2022-10-05T04:12:14.803Z,102030.59
2022-10-05T04:15:00.110Z,102030.13
2022-10-05T04:17:44.764Z,102023.59
2022-10-05T04:20:46.451Z,102020.34
2022-10-05T04:23:53.054Z,102019.94
2022-10-05T04:26:48.267Z,102013.50
2022-10-05T04:29:34.417Z,102014.03
2022-10-05T04:32:32.634Z,102014.59
2022-10-05T04:35:43.070Z,102010.84
2022-10-05T04:38:27.958Z,102008.03
2022-10-05T04:41:07.350Z,101989.97
2022-10-05T04:43:37.602Z,101985.34
2022-10-05T04:46:26.698Z,101977.38
2022-10-05T04:49:16.005Z,101959.47
2022-10-05T04:52:01.316Z,101949.53
2022-10-05T04:54:41.839Z,101940.84
2022-10-05T04:57:56.144Z,101938.19
2022-10-05T05:00:54.629Z,101932.06
2022-10-05T05:03:50.970Z,101942.69
2022-10-05T05:06:36.923Z,101932.59
2022-10-05T05:09:20.913Z,101925.56
2022-10-05T05:12:12.139Z,101929.47
2022-10-05T05:15:08.760Z,101930.72
2022-10-05T05:18:05.581Z,101925.25
2022-10-05T05:21:19.226Z,101920.91
2022-10-05T05:23:59.262Z,101934.06
2022-10-05T05:26:50.879Z,101934.94
2022-10-05T05:29:45.819Z,101935.63
2022-10-05T05:32:25.319Z,101934.47
2022-10-05T05:35:08.923Z,101912.91
2022-10-05T05:37:54.179Z,101927.72
2022-10-05T05:40:43.504Z,101917.63
2022-10-05T05:43:22.211Z,101911.19
2022-10-05T05:46:08.216Z,101923.47
2022-10-05T05:48:49.421Z,101916.91
2022-10-05T05:51:27.436Z,101921.22
2022-10-05T05:54:05.627Z,101924.59
2022-10-05T05:56:44.972Z,101916.28
2022-10-05T05:59:27.973Z,101905.66
2022-10-05T06:02:23.735Z,101898.19
2022-10-05T06:05:04.593Z,101901.88
2022-10-05T06:07:38.596Z,101902.84
2022-10-05T06:10:29.025Z,101905.34
2022-10-05T06:13:31.240Z,101901.72
2022-10-05T06:16:07.388Z,101904.06
2022-10-05T06:18:42.263Z,101901.25
2022-10-05T06:21:18.779Z,101899.97
2022-10-05T06:24:08.347Z,101898.97
2022-10-05T06:27:05.837Z,101901.50
2022-10-05T06:29:47.806Z,101909.19
2022-10-05T06:32:49.111Z,101908.19
2022-10-05T06:35:45.518Z,101912.53
2022-10-05T06:38:47.960Z,101906.22
2022-10-05T06:41:36.568Z,101910.53
2022-10-05T06:44:44.651Z,101912.38
2022-10-05T06:47:50.592Z,101897.38
2022-10-05T06:50:39.571Z,101895.06
2022-10-05T06:53:51.793Z,101891.81
2022-10-05T06:56:40.256Z,101900.13
2022-10-05T06:59:30.909Z,101894.13
2022-10-05T07:02:08.795Z,101897.91
2022-10-05T07:05:14.393Z,101899.06
2022-10-05T07:08:08.846Z,101897.38
2022-10-05T07:10:59.444Z,101885.75
2022-10-05T07:14:03.508Z,101886.06
2022-10-05T07:17:07.967Z,101878.38
2022-10-05T07:19:53.962Z,101890.16
2022-10-05T07:22:48.871Z,101881.50
2022-10-05T07:25:30.821Z,101886.94
2022-10-05T07:28:33.296Z,101884.97
2022-10-05T07:31:09.147Z,101882.47
2022-10-05T07:34:08.861Z,101888.59
2022-10-05T07:37:37.066Z,101881.94
2022-10-05T07:40:17.705Z,101877.59
2022-10-05T07:43:06.555Z,101875.91
2022-10-05T07:45:49.707Z,101869.94
2022-10-05T07:48:37.225Z,101860.56
2022-10-05T07:51:31.343Z,101855.22
2022-10-05T07:54:22.899Z,101851.59
2022-10-05T07:57:15.323Z,101853.44
2022-10-05T07:59:58.437Z,101847.41
2022-10-05T08:02:50.627Z,101850.19
2022-10-05T08:05:34.538Z,101852.19
2022-10-05T08:08:28.425Z,101859.47
2022-10-05T08:11:33.057Z,101843.66
2022-10-05T08:14:13.387Z,101837.53
2022-10-05T08:16:44.782Z,101835.16
2022-10-05T08:19:27.087Z,101828.31
2022-10-05T08:22:03.706Z,101832.94
2022-10-05T08:25:02.634Z,101827.91
2022-10-05T08:27:48.958Z,101821.03
2022-10-05T08:30:20.525Z,101817.69
2022-10-05T08:33:16.814Z,101817.16
2022-10-05T08:35:57.330Z,101813.81
2022-10-05T08:38:36.836Z,101822.94
2022-10-05T08:41:12.797Z,101814.25
2022-10-05T08:43:51.817Z,101809.09
2022-10-05T08:46:27.847Z,101806.75
2022-10-05T08:49:19.253Z,101803.22
2022-10-05T08:52:04.496Z,101801.84
2022-10-05T08:54:44.181Z,101794.50
2022-10-05T08:57:20.313Z,101800.25
2022-10-05T09:00:20.896Z,101795.34
2022-10-05T09:03:34.447Z,101791.34
2022-10-05T09:06:18.753Z,101790.94
2022-10-05T09:09:00.865Z,101787.88
2022-10-05T09:12:12.420Z,101787.47
2022-10-05T09:15:25.273Z,101771.13
2022-10-05T09:18:27.090Z,101783.88
2022-10-05T09:21:23.061Z,101785.16
2022-10-05T09:24:17.970Z,101791.56
2022-10-05T09:27:00.971Z,101782.22
2022-10-05T09:29:49.112Z,101780.84
2022-10-05T09:32:33.949Z,101783.09
2022-10-05T09:35:15.641Z,101776.56
2022-10-05T09:38:20.371Z,101781.47
2022-10-05T09:41:11.591Z,101783.00
2022-10-05T09:43:44.737Z,101781.06
2022-10-05T09:46:30.788Z,101775.50
2022-10-05T09:49:13.215Z,101784.13
2022-10-05T09:51:55.562Z,101776.00
2022-10-05T09:55:08.036Z,101775.78
2022-10-05T09:58:15.746Z,101776.44
2022-10-05T10:01:15.709Z,101780.22
2022-10-05T10:04:11.635Z,101779.53
2022-10-05T10:07:07.509Z,101772.25
2022-10-05T10:09:51.657Z,101777.13
2022-10-05T10:12:49.129Z,101786.34
2022-10-05T10:15:55.731Z,101783.28
2022-10-05T10:18:32.814Z,101785.50
2022-10-05T10:21:36.477Z,101786.75
2022-10-05T10:24:39.962Z,101786.22
2022-10-05T10:27:52.309Z,101790.25
2022-10-05T10:30:24.039Z,101800.53
2022-10-05T10:33:17.055Z,101804.03
2022-10-05T10:36:06.046Z,101812.50
2022-10-05T10:39:00.041Z,101806.88
2022-10-05T10:41:30.221Z,101815.38
2022-10-05T10:44:26.441Z,101812.16
2022-10-05T10:47:12.861Z,101824.09
2022-10-05T10:50:00.863Z,101823.69
2022-10-05T10:52:32.803Z,101826.72
2022-10-05T10:55:02.891Z,101831.72
2022-10-05T10:57:46.881Z,101837.41
2022-10-05T11:00:32.174Z,101843.75
2022-10-05T11:03:14.576Z,101842.34
2022-10-05T11:05:59.989Z,101849.84
2022-10-05T11:08:53.954Z,101857.47
2022-10-05T11:11:38.835Z,101868.41
2022-10-05T11:14:27.600Z,101882.06
2022-10-05T11:17:30.792Z,101872.69
2022-10-05T11:20:45.328Z,101881.25
2022-10-05T11:23:18.341Z,101877.44
2022-10-05T11:26:03.745Z,101888.41
2022-10-05T11:29:01.437Z,101886.88
2022-10-05T11:31:32.444Z,101889.88
2022-10-05T11:34:29.979Z,101899.16
2022-10-05T11:37:21.553Z,101900.75
2022-10-05T11:40:35.025Z,101902.22
2022-10-05T11:43:24.457Z,101911.50
2022-10-05T11:46:20.351Z,101913.44
2022-10-05T11:49:15.467Z,101921.59
2022-10-05T11:51:50.003Z,101922.06
2022-10-05T11:55:09.133Z,101927.03
2022-10-05T11:58:10.958Z,101929.56
2022-10-05T12:01:11.334Z,101929.19
2022-10-05T12:04:02.935Z,101928.09
2022-10-05T12:06:32.910Z,101939.06
2022-10-05T12:09:24.382Z,101936.06
2022-10-05T12:12:28.468Z,101941.78
2022-10-05T12:15:20.848Z,101934.84
2022-10-05T12:18:09.678Z,101934.13
2022-10-05T12:20:56.902Z,101931.72
2022-10-05T12:24:02.100Z,101930.25
2022-10-05T12:26:54.448Z,101931.34
2022-10-05T12:29:36.616Z,101947.91
2022-10-05T12:32:14.253Z,101939.16
2022-10-05T12:35:07.369Z,101947.78
2022-10-05T12:37:47.780Z,101941.41
2022-10-05T12:40:46.877Z,101946.59
2022-10-05T12:43:41.262Z,101951.03
2022-10-05T12:46:28.805Z,101952.84
2022-10-05T12:49:01.868Z,101952.63
2022-10-05T12:51:56.280Z,101955.25
2022-10-05T12:54:44.577Z,101958.84
2022-10-05T12:57:28.338Z,101952.13
2022-10-05T13:00:01.587Z,101955.38
2022-10-05T13:02:45.866Z,101965.94
2022-10-05T13:05:22.824Z,101968.31
2022-10-05T13:08:19.641Z,101967.38
2022-10-05T13:11:31.806Z,101960.41
2022-10-05T13:14:36.797Z,101963.41
2022-10-05T13:17:33.566Z,101962.69
2022-10-05T13:20:24.835Z,101961.84
2022-10-05T13:23:17.779Z,101958.13
2022-10-05T13:25:59.270Z,101967.13
2022-10-05T13:29:17.958Z,101964.59
2022-10-05T13:32:02.126Z,101958.47
2022-10-05T13:34:41.753Z,101964.59
2022-10-05T13:37:46.955Z,101956.91
2022-10-05T13:40:26.072Z,101948.25
2022-10-05T13:43:23.745Z,101951.75
2022-10-05T13:46:18.599Z,101939.38
2022-10-05T13:49:01.686Z,101934.81
2022-10-05T13:51:43.561Z,101941.06
2022-10-05T13:54:23.137Z,101937.69
2022-10-05T13:57:19.137Z,101939.56
2022-10-05T13:59:59.300Z,101938.03
2022-10-05T14:02:40.381Z,101933.81
2022-10-05T14:05:22.073Z,101944.50
2022-10-05T14:07:57.365Z,101941.88
2022-10-05T14:10:43.537Z,101941.13
2022-10-05T14:13:36.567Z,101940.53
2022-10-05T14:16:20.019Z,101938.25
2022-10-05T14:19:00.462Z,101944.69
2022-10-05T14:21:45.756Z,101940.63
2022-10-05T14:24:53.819Z,101947.44
2022-10-05T14:27:26.413Z,101949.56
2022-10-05T14:30:25.214Z,101945.50
2022-10-05T14:33:06.238Z,101952.91
2022-10-05T14:35:55.130Z,101959.13
2022-10-05T14:38:54.786Z,101956.84
2022-10-05T14:41:29.736Z,101960.31
2022-10-05T14:44:12.004Z,101962.34
2022-10-05T14:46:55.934Z,101956.47
2022-10-05T14:49:30.654Z,101962.69
2022-10-05T14:52:01.295Z,101970.84
2022-10-05T14:54:43.128Z,101971.91
2022-10-05T14:57:33.510Z,101966.94
2022-10-05T15:00:07.706Z,101963.59
2022-10-05T15:02:49.514Z,101963.59
2022-10-05T15:05:32.926Z,101965.50
2022-10-05T15:08:14.256Z,101970.03
2022-10-05T15:11:07.022Z,101968.59
2022-10-05T15:13:45.638Z,101968.69
2022-10-05T15:16:35.618Z,101976.50
2022-10-05T15:19:17.601Z,101976.41
2022-10-05T15:22:20.644Z,101975.53
2022-10-05T15:25:01.272Z,101985.16
2022-10-05T15:27:57.134Z,101973.25
2022-10-05T15:30:27.656Z,101967.56
2022-10-05T15:33:30.837Z,101969.81
2022-10-05T15:36:44.285Z,101965.00
2022-10-05T15:39:34.084Z,101970.59
2022-10-05T15:42:18.269Z,101977.16
2022-10-05T15:44:55.488Z,101969.66
2022-10-05T15:47:37.786Z,101974.31
2022-10-05T15:50:40.113Z,101972.75
2022-10-05T15:53:21.656Z,101969.34
2022-10-05T15:56:01.085Z,101969.50
2022-10-05T15:58:43.135Z,101970.44
2022-10-05T16:01:15.479Z,101971.59
2022-10-05T16:03:49.379Z,101969.91
2022-10-05T16:06:49.900Z,101960.34
2022-10-05T16:09:30.712Z,101964.75
2022-10-05T16:12:20.146Z,101962.09
2022-10-05T16:14:58.184Z,101956.00
2022-10-05T16:17:59.199Z,101953.38
2022-10-05T16:20:42.866Z,101950.84
2022-10-05T16:23:49.664Z,101952.53
2022-10-05T16:26:39.922Z,101952.53
2022-10-05T16:29:28.083Z,101948.09
2022-10-05T16:32:12.198Z,101946.28
2022-10-05T16:35:04.757Z,101948.94
2022-10-05T16:37:42.748Z,101953.38
2022-10-05T16:40:32.311Z,101954.31
2022-10-05T16:43:11.724Z,101954.53
2022-10-05T16:46:03.168Z,101947.88
2022-10-05T16:49:02.802Z,101945.59
2022-10-05T16:52:00.651Z,101944.34
2022-10-05T16:54:36.579Z,101943.63
2022-10-05T16:57:07.195Z,101950.84
2022-10-05T16:59:43.805Z,101951.94
2022-10-05T17:02:16.475Z,101954.78
2022-10-05T17:05:30.673Z,101961.84
2022-10-05T17:08:12.627Z,101956.66
2022-10-05T17:11:01.122Z,101959.41
2022-10-05T17:13:46.313Z,101963.09
2022-10-05T17:16:36.337Z,101962.59
2022-10-05T17:19:12.078Z,101963.69
2022-10-05T17:22:01.768Z,101966.44
2022-10-05T17:25:16.088Z,101959.78
2022-10-05T17:28:17.857Z,101965.06
2022-10-05T17:31:21.607Z,101961.16
2022-10-05T17:34:14.281Z,101956.09
2022-10-05T17:36:54.999Z,101959.88
2022-10-05T17:39:46.918Z,101961.88
2022-10-05T17:42:30.601Z,101960.91
2022-10-05T17:45:20.850Z,101964.31
2022-10-05T17:48:03.066Z,101969.69
2022-10-05T17:51:08.455Z,101963.69
2022-10-05T17:53:58.545Z,101957.66
2022-10-05T17:56:29.456Z,101951.75
2022-10-05T17:59:04.445Z,101939.38
2022-10-05T18:01:44.164Z,101940.09
2022-10-05T18:04:14.198Z,101939.13
2022-10-05T18:07:02.678Z,101943.47
2022-10-05T18:09:37.688Z,101938.41
2022-10-05T18:12:20.802Z,101940.09
2022-10-05T18:15:05.546Z,101944.50
2022-10-05T18:17:48.016Z,101927.88
2022-10-05T18:20:30.232Z,101938.41
2022-10-05T18:23:09.074Z,101945.25
2022-10-05T18:25:51.278Z,101941.03
2022-10-05T18:28:27.881Z,101949.25
2022-10-05T18:31:33.725Z,101942.38
2022-10-05T18:34:16.163Z,101937.31
2022-10-05T18:37:01.866Z,101927.88
2022-10-05T18:40:10.142Z,101910.47
2022-10-05T18:42:43.464Z,101900.06
2022-10-05T18:45:38.925Z,101907.84
2022-10-05T18:48:48.265Z,101902.81
2022-10-05T18:51:35.236Z,101910.81
2022-10-05T18:54:05.331Z,101908.28
2022-10-05T18:56:50.708Z,101907.13
2022-10-05T18:59:26.869Z,101909.75
2022-10-05T19:02:21.417Z,101903.66
2022-10-05T19:05:45.839Z,101901.22
2022-10-05T19:08:13.946Z,101908.66
2022-10-05T19:10:43.336Z,101889.44
2022-10-05T19:13:28.764Z,101893.13
2022-10-05T19:16:52.534Z,101888.06
2022-10-05T19:19:46.211Z,101890.97
2022-10-05T19:22:22.032Z,101888.53
2022-10-05T19:25:15.760Z,101889.41
2022-10-05T19:28:15.057Z,101886.03
2022-10-05T19:30:57.407Z,101889.50
2022-10-05T19:33:55.020Z,101888.53
2022-10-05T19:36:30.940Z,101888.69
2022-10-05T19:39:13.010Z,101887.91
2022-10-05T19:41:52.085Z,101887.41
2022-10-05T19:44:51.268Z,101879.81
2022-10-05T19:47:41.270Z,101873.91
2022-10-05T19:50:25.301Z,101874.28
2022-10-05T19:53:14.704Z,101867.56
2022-10-05T19:55:48.414Z,101865.84
2022-10-05T19:58:42.256Z,101869.25
2022-10-05T20:01:12.692Z,101871.97
2022-10-05T20:03:43.947Z,101873.88
2022-10-05T20:06:14.133Z,101883.75
2022-10-05T20:08:47.255Z,101879.50
2022-10-05T20:11:18.542Z,101882.44
2022-10-05T20:13:57.462Z,101876.53
2022-10-05T20:16:46.186Z,101877.03
2022-10-05T20:19:56.699Z,101867.97
2022-10-05T20:22:37.095Z,101865.84
2022-10-05T20:25:31.773Z,101870.31
2022-10-05T20:28:03.668Z,101872.94
2022-10-05T20:30:36.625Z,101868.47
2022-10-05T20:33:11.797Z,101867.50
2022-10-05T20:35:42.425Z,101869.38
2022-10-05T20:38:12.610Z,101866.94
2022-10-05T20:40:42.729Z,101866.19
2022-10-05T20:43:12.751Z,101873.16
2022-10-05T20:45:44.756Z,101872.41
2022-10-05T20:48:17.993Z,101873.53
2022-10-05T20:50:48.802Z,101860.59
2022-10-05T20:53:18.880Z,101865.97
2022-10-05T20:55:48.900Z,101868.69
2022-10-05T20:58:19.425Z,101871.41
2022-10-05T21:01:08.149Z,101873.28
2022-10-05T21:03:38.884Z,101871.69
2022-10-05T21:06:09.230Z,101870.00
2022-10-05T21:08:39.761Z,101875.34
2022-10-05T21:11:12.647Z,101874.69
2022-10-05T21:13:49.267Z,101870.47
2022-10-05T21:16:24.124Z,101873.19
2022-10-05T21:18:55.105Z,101871.69
2022-10-05T21:21:27.735Z,101875.16
2022-10-05T21:23:58.585Z,101874.31
2022-10-05T21:26:32.141Z,101861.28
2022-10-05T21:29:03.760Z,101871.88
2022-10-05T21:31:33.891Z,101871.13
2022-10-05T21:34:04.717Z,101863.44
2022-10-05T21:36:35.010Z,101870.56
2022-10-05T21:39:05.924Z,101863.66
2022-10-05T21:41:35.973Z,101861.03
2022-10-05T21:44:07.794Z,101863.75
2022-10-05T21:46:39.620Z,101868.03
2022-10-05T21:49:11.155Z,101876.78
2022-10-05T21:51:41.962Z,101871.53
2022-10-05T21:54:16.042Z,101870.38
2022-10-05T21:56:51.799Z,101864.22
2022-10-05T21:59:24.682Z,101856.44
2022-10-05T22:01:55.388Z,101856.72
2022-10-05T22:04:25.687Z,101856.78
2022-10-05T22:06:57.433Z,101856.88
2022-10-05T22:09:29.273Z,101851.72
2022-10-05T22:12:00.033Z,101846.47
2022-10-05T22:14:30.426Z,101847.34
2022-10-05T22:17:00.508Z,101852.59
2022-10-05T22:19:30.628Z,101846.69
2022-10-05T22:22:01.141Z,101850.25
2022-10-05T22:24:31.822Z,101852.97
2022-10-05T22:27:01.972Z,101859.72
2022-10-05T22:29:33.003Z,101861.56
2022-10-05T22:32:03.841Z,101867.59
2022-10-05T22:34:34.319Z,101866.81
2022-10-05T22:37:06.091Z,101858.22
2022-10-05T22:39:36.781Z,101855.66
2022-10-05T22:42:07.241Z,101856.53
2022-10-05T22:44:38.366Z,101865.16
2022-10-05T22:47:09.842Z,101865.81
2022-10-05T22:49:40.069Z,101863.75
2022-10-05T22:52:10.293Z,101871.31
2022-10-05T22:54:40.514Z,101871.78
2022-10-05T22:57:11.224Z,101875.06
2022-10-05T22:59:41.703Z,101884.34
2022-10-05T23:02:12.190Z,101887.44
2022-10-05T23:04:43.104Z,101883.69
2022-10-05T23:07:13.398Z,101890.25
2022-10-05T23:09:43.462Z,101890.03
2022-10-05T23:12:15.123Z,101897.44
2022-10-05T23:14:45.815Z,101886.44
2022-10-05T23:17:15.875Z,101885.97
2022-10-05T23:19:45.959Z,101884.50
2022-10-05T23:22:16.813Z,101897.25
2022-10-05T23:24:46.956Z,101905.97
2022-10-05T23:27:17.783Z,101904.09
2022-10-05T23:29:48.134Z,101907.41
2022-10-05T23:32:18.774Z,101903.63
2022-10-05T23:34:49.287Z,101901.19
2022-10-05T23:37:21.017Z,101899.28
2022-10-05T23:39:50.624Z,101898.34
2022-10-05T23:42:21.747Z,101904.16
2022-10-05T23:44:52.512Z,101912.59
2022-10-05T23:47:23.242Z,101910.28
2022-10-05T23:49:53.682Z,101909.91
2022-10-05T23:52:24.114Z,101913.72
2022-10-05T23:54:55.633Z,101907.19
2022-10-05T23:57:26.326Z,101906.47
2022-10-05T23:59:57.771Z,101912.09
